PWSweather.com
Personal Weather Stations
Station Observations
03410
LignerollesTF

LignerollesTF

Lat: 46.292342, Lon: 2.589435

Elevation: 1014

Station Type: Vantage Vue

http://meteo-lignerolles.fr

Latest ConditionsUpdated 5:10:00 AM GMT+01:01 Tuesday, Oct 23, 2018
Currently Today's Max Today's Min Today's Average
Temperature 47.6°F8.7°C 52.1°F11.2°C 47.6°F8.7°C 49.5°F9.7°C
Dew Point 44.8°F7.1°C 47.7°F8.7°C 44.8°F7.1°C 46.0°F7.8°C
Winds 1.0 mph NE1.6 kmh NE 2.0 mph -3.2 kmh - - 0.2 mph 0.3 kmh
Wind Gusts 4.0 mph6.4 kmh 6.0 mph9.7 kmh - -
Humidity 90% 90% 85% 88%
Pressure 30.51 in1033.2 mb 30.52 in1033.5 mb 30.49 in1032.5 mb -
Hour Temp Dew Point Humidity Winds Wind Gusts Pressure Precip Precip Rate Daily Precip Total
05:10 AM 47.6°F8.7°C 44.8°F7.1°C 90% 1.0 mph NE1.6 kmh NE 4.0 mph6.4 kmh 30.51 in1033.2 mb 0.00 in0.0 mm 0.00 in0.0 mm 0.00 in0.0 mm
05:00 AM 48.0°F8.9°C 45.2°F7.3°C 90% Calm Calm 2.0 mph3.2 kmh 30.51 in1033.2 mb 0.00 in0.0 mm 0.00 in0.0 mm 0.00 in0.0 mm
04:50 AM 48.1°F8.9°C 45.3°F7.4°C 90% Calm Calm 1.0 mph1.6 kmh 30.50 in1032.8 mb 0.00 in0.0 mm 0.00 in0.0 mm 0.00 in0.0 mm
04:40 AM 48.2°F9.0°C 45.4°F7.4°C 90% Calm Calm 1.0 mph1.6 kmh 30.49 in1032.5 mb 0.00 in0.0 mm 0.00 in0.0 mm 0.00 in0.0 mm
04:30 AM 48.3°F9.1°C 45.5°F7.5°C 90% Calm Calm 1.0 mph1.6 kmh 30.49 in1032.5 mb 0.00 in0.0 mm 0.00 in0.0 mm 0.00 in0.0 mm
04:20 AM 48.3°F9.1°C 45.5°F7.5°C 90% Calm Calm 2.0 mph3.2 kmh 30.49 in1032.5 mb 0.00 in0.0 mm 0.00 in0.0 mm 0.00 in0.0 mm
04:10 AM 48.2°F9.0°C 45.4°F7.4°C 90% Calm Calm 1.0 mph1.6 kmh 30.49 in1032.5 mb 0.00 in0.0 mm 0.00 in0.0 mm 0.00 in0.0 mm
04:00 AM 48.2°F9.0°C 45.4°F7.4°C 90% Calm Calm 1.0 mph1.6 kmh 30.49 in1032.5 mb 0.00 in0.0 mm 0.00 in0.0 mm 0.00 in0.0 mm
03:50 AM 48.3°F9.1°C 45.2°F7.3°C 89% Calm Calm 2.0 mph3.2 kmh 30.49 in1032.5 mb 0.00 in0.0 mm 0.00 in0.0 mm 0.00 in0.0 mm
03:40 AM 48.3°F9.1°C 45.2°F7.3°C 89% Calm Calm 2.0 mph3.2 kmh 30.50 in1032.8 mb 0.00 in0.0 mm 0.00 in0.0 mm 0.00 in0.0 mm
03:30 AM 48.4°F9.1°C 45.3°F7.4°C 89% Calm Calm 3.0 mph4.8 kmh 30.50 in1032.8 mb 0.00 in0.0 mm 0.00 in0.0 mm 0.00 in0.0 mm
03:20 AM 48.4°F9.1°C 45.3°F7.4°C 89% Calm Calm 1.0 mph1.6 kmh 30.50 in1032.8 mb 0.00 in0.0 mm 0.00 in0.0 mm 0.00 in0.0 mm
03:10 AM 48.6°F9.2°C 45.5°F7.5°C 89% Calm Calm 3.0 mph4.8 kmh 30.51 in1033.2 mb 0.00 in0.0 mm 0.00 in0.0 mm 0.00 in0.0 mm
03:00 AM 48.8°F9.3°C 45.7°F7.6°C 89% Calm Calm 2.0 mph3.2 kmh 30.51 in1033.2 mb 0.00 in0.0 mm 0.00 in0.0 mm 0.00 in0.0 mm
02:50 AM 48.9°F9.4°C 45.8°F7.7°C 89% Calm Calm 1.0 mph1.6 kmh 30.50 in1032.8 mb 0.00 in0.0 mm 0.00 in0.0 mm 0.00 in0.0 mm
02:40 AM 49.1°F9.5°C 45.7°F7.6°C 88% Calm Calm 1.0 mph1.6 kmh 30.50 in1032.8 mb 0.00 in0.0 mm 0.00 in0.0 mm 0.00 in0.0 mm
02:30 AM 49.2°F9.6°C 45.8°F7.7°C 88% Calm Calm 2.0 mph3.2 kmh 30.51 in1033.2 mb 0.00 in0.0 mm 0.00 in0.0 mm 0.00 in0.0 mm
02:20 AM 49.3°F9.6°C 45.9°F7.7°C 88% Calm Calm 2.0 mph3.2 kmh 30.51 in1033.2 mb 0.00 in0.0 mm 0.00 in0.0 mm 0.00 in0.0 mm
02:10 AM 49.5°F9.7°C 46.1°F7.8°C 88% Calm Calm 2.0 mph3.2 kmh 30.51 in1033.2 mb 0.00 in0.0 mm 0.00 in0.0 mm 0.00 in0.0 mm
02:00 AM 49.9°F9.9°C 46.2°F7.9°C 87% Calm Calm 1.0 mph1.6 kmh 30.51 in1033.2 mb 0.00 in0.0 mm 0.00 in0.0 mm 0.00 in0.0 mm
01:50 AM 49.9°F9.9°C 46.2°F7.9°C 87% Calm Calm 2.0 mph3.2 kmh 30.51 in1033.2 mb 0.00 in0.0 mm 0.00 in0.0 mm 0.00 in0.0 mm
01:40 AM 50.1°F10.1°C 46.4°F8.0°C 87% Calm Calm 3.0 mph4.8 kmh 30.51 in1033.2 mb 0.00 in0.0 mm 0.00 in0.0 mm 0.00 in0.0 mm
01:30 AM 50.2°F10.1°C 46.5°F8.1°C 87% Calm Calm 2.0 mph3.2 kmh 30.51 in1033.2 mb 0.00 in0.0 mm 0.00 in0.0 mm 0.00 in0.0 mm
01:20 AM 50.4°F10.2°C 46.4°F8.0°C 86% 1.0 mph 1.6 kmh 3.0 mph4.8 kmh 30.51 in1033.2 mb 0.00 in0.0 mm 0.00 in0.0 mm 0.00 in0.0 mm
01:10 AM 50.6°F10.3°C 46.6°F8.1°C 86% Calm Calm 3.0 mph4.8 kmh 30.51 in1033.2 mb 0.00 in0.0 mm 0.00 in0.0 mm 0.00 in0.0 mm
01:00 AM 50.8°F10.4°C 46.8°F8.2°C 86% Calm Calm 3.0 mph4.8 kmh 30.51 in1033.2 mb 0.00 in0.0 mm 0.00 in0.0 mm 0.00 in0.0 mm
12:50 AM 51.1°F10.6°C 47.1°F8.4°C 86% Calm Calm 2.0 mph3.2 kmh 30.51 in1033.2 mb 0.00 in0.0 mm 0.00 in0.0 mm 0.00 in0.0 mm
12:40 AM 51.3°F10.7°C 46.9°F8.3°C 85% 1.0 mph ENE1.6 kmh ENE 4.0 mph6.4 kmh 30.51 in1033.2 mb 0.00 in0.0 mm 0.00 in0.0 mm 0.00 in0.0 mm
12:30 AM 51.5°F10.8°C 47.1°F8.4°C 85% 1.0 mph ENE1.6 kmh ENE 4.0 mph6.4 kmh 30.52 in1033.5 mb 0.00 in0.0 mm 0.00 in0.0 mm 0.00 in0.0 mm
12:20 AM 51.7°F10.9°C 47.3°F8.5°C 85% 1.0 mph ENE1.6 kmh ENE 4.0 mph6.4 kmh 30.51 in1033.2 mb 0.00 in0.0 mm 0.00 in0.0 mm 0.00 in0.0 mm
12:10 AM 51.9°F11.1°C 47.5°F8.6°C 85% 1.0 mph NE1.6 kmh NE 5.0 mph8.0 kmh 30.52 in1033.5 mb 0.00 in0.0 mm 0.00 in0.0 mm 0.00 in0.0 mm
12:00 AM 52.1°F11.2°C 47.7°F8.7°C 85% 2.0 mph NE3.2 kmh NE 6.0 mph9.7 kmh 30.51 in1033.2 mb 0.00 in0.0 mm 0.00 in0.0 mm 0.00 in0.0 mm